Helenville, WI

9:02 AM CST on January 25, 2015 (GMT -0600)
Johnson Creek | Change Station
CLOSE
Current Station
Personal Weather Station
Location: Johnson Creek, WI
Elevation: 856 ft
Nearby Weather Stations

Elev 856 ft 43.06 °N, 88.77 °W | Updated 38 seconds ago

Overcast
Overcast
25.2 °F
Feels Like 17 °F
N
7.8
Wind Variable Wind from NNE

Today
High -- | Low -- °F
--% Chance of Precip.
Yesterday
High -- | Low -- °F
Precip. -- in
7:16 AM 4:57 PM
Waxing Crescent, 33% visible
Pressure 29.85 in
Visibility 7.0 miles
Clouds Overcast 1600 ft
Windchill 17 °F
Dew Point 20 °F
Humidity 81%
Rainfall 0.00 in
Snow Depth Not available.
UV 0 out of 12
Pollen .10 out of 12
Air Quality Not available.
Flu Activity Not available.
METAR KRYV 251435Z AUTO 05012G15KT 7SM -SN OVC016 M04/M06 A2985 RMK AO2 T10361057

More Conditions Fewer Conditions

Pressure 29.85 in
Visibility 7.0 miles
Clouds Overcast 1600 ft
Windchill 17 °F
Dew Point 20 °F
Humidity 81%
Rainfall 0.00 in
Snow Depth Not available.
UV 0 out of 12
Pollen .10 out of 12
Air Quality Not available.
Flu Activity Not available.
METAR KRYV 251435Z AUTO 05012G15KT 7SM -SN OVC016 M04/M06 A2985 RMK AO2 T10361057

More Conditions Fewer Conditions

10-Day Weather Forecast

Almanac

Astronomy

Jan. 25, 2015 Rise Set
Actual Time
Civil Twilight
Nautical Twilight
Astronomical Twilight
Moon
Length of Visible Light
Length of Day
Tomorrow will be .
, % of the Moon is Illuminated

Today's Extremes

State Highs State Lows

Community

WunderPhotos

Upload Photos

1,789,909 photos uploaded!

WunderBlogs® & News

Nearby

Air Quality

  Air Quality AQ Index Pollutant
Not available.

Snow Depth

Station Depth Elevation

Earthquake Activity

City Distance Mag. Time & Date
Minimum magnitude displayed is 2.5.

Coastal Water Temperatures

Place Temperature

Nearby Weather Stations